Terminal Aerodrome Forecast
Issued by NWS Grand Junction, CO

Home | Current Version | Previous Version | Text Only | Print | Product List | Glossary On
Versions: 1 2 3 4 5 6 7 8 9 10 11 12 13 14 15 16 17 18 19 20 21 22 23 24 25 26
000
FTUS45 KGJT 271728
TAFGJT
TAF
KGJT 271728Z 2718/2818 10007KT P6SM OVC100
     FM272300 20011KT P6SM VCSH BKN080
     FM280200 18008KT P6SM -SHRA BKN060
     FM280700 11005KT P6SM -SHRA OVC030
     FM281000 00000KT P6SM VCSH BKN040
     FM281200 31004KT P6SM BKN040=

USA.gov is the U.S. government's official web portal to all federal, state and local government web resources and services.